Time;durP1;ratioP1;P1;durP2;ratioP2;P2;SDS_P1;SDS_P2;PMS_P1;PMS_P2;Temp;Humidity;BMP_temperature;BMP_pressure;BME280_temperature;BME280_humidity;BME280_pressure;Samples;Min_cycle;Max_cycle;Signal;HPM_P1;HPM_P2
2022/03/31 00:00:36;;;;;;;7.50;4.57;;;10.10;56.50;;;;;;5015850;28;20412;-90
2022/03/31 00:03:04;;;;;;;5.55;4.50;;;10.00;56.50;;;;;;5019313;28;20221;-89
2022/03/31 00:05:30;;;;;;;5.00;4.50;;;10.00;56.80;;;;;;5019369;28;20178;-90
2022/03/31 00:08:03;;;;;;;7.93;4.90;;;9.90;56.90;;;;;;5015825;28;20239;-89
2022/03/31 00:10:47;;;;;;;6.80;4.45;;;9.90;57.00;;;;;;5014816;28;20265;-89
2022/03/31 00:13:22;;;;;;;10.15;5.05;;;10.10;57.20;;;;;;5018714;28;20193;-89
2022/03/31 00:15:48;;;;;;;4.80;3.85;;;9.90;56.90;;;;;;5036314;28;20196;-89
2022/03/31 00:18:22;;;;;;;5.95;4.78;;;9.90;57.00;;;;;;5019242;28;20182;-90
2022/03/31 00:20:50;;;;;;;6.90;5.15;;;10.00;57.10;;;;;;5018776;28;20327;-89
2022/03/31 00:23:16;;;;;;;7.22;4.32;;;9.90;56.80;;;;;;5018734;28;20213;-90
2022/03/31 00:25:42;;;;;;;6.87;5.07;;;9.80;56.90;;;;;;5018940;28;20585;-90
2022/03/31 00:28:08;;;;;;;8.87;4.83;;;9.80;57.00;;;;;;5004083;28;20185;-90
2022/03/31 00:30:34;;;;;;;7.60;5.23;;;9.80;57.20;;;;;;5012399;28;20241;-89
2022/03/31 00:33:00;;;;;;;9.52;4.90;;;9.90;57.60;;;;;;4999238;28;20276;-91
2022/03/31 00:35:26;;;;;;;6.35;4.80;;;9.90;57.50;;;;;;5011616;28;20588;-90
2022/03/31 00:37:52;;;;;;;9.07;4.60;;;9.90;57.50;;;;;;5018458;28;20205;-90
2022/03/31 00:40:21;;;;;;;32.00;5.82;;;9.80;57.60;;;;;;5019153;28;20413;-89
2022/03/31 00:42:55;;;;;;;9.30;5.40;;;9.80;57.90;;;;;;5019128;28;20348;-89
2022/03/31 00:45:24;;;;;;;9.60;5.43;;;9.70;58.80;;;;;;5019325;28;20188;-89
2022/03/31 00:47:51;;;;;;;9.65;5.40;;;9.40;59.10;;;;;;5020582;28;20240;-90
2022/03/31 00:50:17;;;;;;;13.55;5.50;;;9.40;59.20;;;;;;5020968;28;20205;-90
2022/03/31 00:52:43;;;;;;;8.75;5.43;;;9.30;59.60;;;;;;5028606;28;20202;-90
2022/03/31 00:55:11;;;;;;;10.60;5.67;;;9.40;59.90;;;;;;5019261;28;20640;-89
2022/03/31 00:57:38;;;;;;;5.82;4.43;;;9.40;59.80;;;;;;5018045;28;20542;-89
2022/03/31 01:00:07;;;;;;;6.80;5.10;;;9.40;59.50;;;;;;5018349;28;20205;-89
2022/03/31 01:02:35;;;;;;;7.18;4.63;;;9.40;59.50;;;;;;5017844;28;20194;-90
2022/03/31 01:05:01;;;;;;;10.48;5.38;;;9.50;59.90;;;;;;5018451;28;20192;-90
2022/03/31 01:07:34;;;;;;;8.63;4.97;;;9.40;59.80;;;;;;5018076;28;20181;-89
2022/03/31 01:10:00;;;;;;;6.50;4.90;;;9.70;59.20;;;;;;5020425;28;20206;-90
2022/03/31 01:12:25;;;;;;;12.57;7.23;;;9.60;59.30;;;;;;5022918;28;20203;-90
2022/03/31 01:15:20;;;;;;;7.33;4.73;;;9.50;59.50;;;;;;5039950;28;20408;-90
2022/03/31 01:18:07;;;;;;;5.97;5.25;;;9.00;60.70;;;;;;5028310;28;20499;-89
2022/03/31 01:20:33;;;;;;;10.43;5.63;;;8.90;62.00;;;;;;5020274;28;20177;-90
2022/03/31 01:23:01;;;;;;;6.20;5.57;;;9.00;62.00;;;;;;5036595;28;20222;-90
2022/03/31 01:25:28;;;;;;;8.95;5.38;;;9.00;62.00;;;;;;5018307;28;20424;-90
2022/03/31 01:27:54;;;;;;;6.75;4.97;;;9.00;62.20;;;;;;5017558;28;20550;-90
2022/03/31 01:30:23;;;;;;;9.10;5.43;;;9.20;61.80;;;;;;5018129;28;20261;-91
2022/03/31 01:32:49;;;;;;;6.43;5.22;;;9.00;61.90;;;;;;5035491;28;20277;-91
2022/03/31 01:35:16;;;;;;;6.63;4.78;;;9.00;61.80;;;;;;5017952;28;20236;-91
2022/03/31 01:37:42;;;;;;;10.40;5.50;;;8.90;62.10;;;;;;5017040;28;20228;-91
2022/03/31 01:40:09;;;;;;;12.30;6.38;;;8.80;62.20;;;;;;5017347;28;20178;-91
2022/03/31 01:42:38;;;;;;;8.95;4.82;;;8.80;62.60;;;;;;5018296;28;20236;-90
2022/03/31 01:45:07;;;;;;;6.25;5.40;;;8.80;62.50;;;;;;5035431;28;20301;-89
2022/03/31 01:47:32;;;;;;;6.55;5.03;;;8.70;62.90;;;;;;5018159;28;20178;-91
2022/03/31 01:50:01;;;;;;;7.23;4.50;;;8.60;63.30;;;;;;5017690;28;20650;-90
2022/03/31 01:52:28;;;;;;;5.85;5.25;;;8.40;64.10;;;;;;5016713;28;20224;-90
2022/03/31 01:54:54;;;;;;;8.35;5.72;;;8.40;64.40;;;;;;5021206;28;20193;-91
2022/03/31 01:57:20;;;;;;;5.65;4.97;;;8.60;64.50;;;;;;5032898;28;20261;-90
2022/03/31 01:59:46;;;;;;;11.32;5.65;;;8.40;65.40;;;;;;5026138;28;20202;-90
2022/03/31 02:02:22;;;;;;;5.40;4.50;;;8.40;66.20;;;;;;5016943;28;20547;-90
2022/03/31 02:04:48;;;;;;;5.30;3.20;;;8.20;67.50;;;;;;5034762;28;20241;-90
2022/03/31 02:07:16;;;;;;;4.93;4.40;;;7.80;68.70;;;;;;5018399;28;20202;-90
2022/03/31 02:09:42;;;;;;;5.45;4.20;;;7.80;70.40;;;;;;5034098;28;20412;-88
2022/03/31 02:12:08;;;;;;;6.63;4.35;;;7.90;69.70;;;;;;5017957;28;20210;-90
2022/03/31 02:14:37;;;;;;;6.60;4.05;;;7.90;69.40;;;;;;5018053;28;20200;-90
2022/03/31 02:17:07;;;;;;;7.72;4.35;;;7.80;69.30;;;;;;5006116;28;20207;-91
2022/03/31 02:19:33;;;;;;;6.82;4.93;;;7.60;70.30;;;;;;5023340;28;20208;-90
2022/03/31 02:21:59;;;;;;;6.50;5.50;;;7.60;71.20;;;;;;5016027;28;20210;-91
2022/03/31 02:24:25;;;;;;;6.40;4.47;;;7.60;71.40;;;;;;5016303;28;20240;-91
2022/03/31 02:26:51;;;;;;;7.53;5.30;;;7.50;72.00;;;;;;5016450;28;20421;-90
2022/03/31 02:29:18;;;;;;;8.77;5.68;;;7.10;73.60;;;;;;5017250;28;20192;-90
2022/03/31 02:31:46;;;;;;;7.47;4.82;;;6.90;74.50;;;;;;5016335;28;20590;-90
2022/03/31 02:34:13;;;;;;;8.75;5.72;;;6.90;75.30;;;;;;5015000;28;20177;-92
2022/03/31 02:36:40;;;;;;;8.25;5.78;;;6.70;75.80;;;;;;5033676;28;20265;-92
2022/03/31 02:39:07;;;;;;;8.32;5.60;;;6.60;76.10;;;;;;5015857;28;20269;-92
2022/03/31 02:41:34;;;;;;;7.72;5.78;;;6.70;76.50;;;;;;5016234;28;20362;-92
2022/03/31 02:43:59;;;;;;;5.72;5.10;;;6.50;76.80;;;;;;5035782;28;20196;-92
2022/03/31 02:46:28;;;;;;;11.63;3.93;;;6.40;77.10;;;;;;5035160;28;20193;-92
2022/03/31 02:48:58;;;;;;;6.05;4.70;;;6.20;77.40;;;;;;5017807;28;21118;-92
2022/03/31 02:51:24;;;;;;;5.82;4.40;;;6.20;77.50;;;;;;5017339;28;20231;-90
2022/03/31 02:56:38;;;;;;;4.90;4.28;;;5.90;77.50;;;;;;5035352;28;20348;-90
2022/03/31 02:59:04;;;;;;;3.83;3.53;;;5.60;77.90;;;;;;5033255;28;20687;-90
2022/03/31 03:01:30;;;;;;;5.72;3.65;;;5.50;78.20;;;;;;5016098;28;20209;-90
2022/03/31 03:03:57;;;;;;;4.07;3.27;;;5.60;78.20;;;;;;5011107;28;20178;-90
2022/03/31 03:06:27;;;;;;;4.32;2.92;;;5.80;77.60;;;;;;5015906;28;20425;-90
2022/03/31 03:08:57;;;;;;;6.88;2.80;;;5.80;76.60;;;;;;5017572;28;20660;-90
2022/03/31 03:11:23;;;;;;;3.45;2.85;;;5.50;76.50;;;;;;5015378;28;20244;-89
2022/03/31 03:13:50;;;;;;;2.65;2.45;;;5.10;77.40;;;;;;5016411;28;20193;-90
2022/03/31 03:16:15;;;;;;;4.05;2.92;;;5.10;77.70;;;;;;5016534;28;20205;-90
2022/03/31 03:18:41;;;;;;;3.47;2.60;;;5.30;77.50;;;;;;5017379;28;20563;-89
2022/03/31 03:21:08;;;;;;;3.97;3.10;;;5.30;77.30;;;;;;5019296;28;20205;-90
2022/03/31 03:23:34;;;;;;;3.20;2.22;;;5.40;77.20;;;;;;5037222;28;20508;-92
2022/03/31 03:26:01;;;;;;;2.60;2.28;;;5.30;76.70;;;;;;5016418;28;20178;-90
2022/03/31 03:28:27;;;;;;;3.65;2.60;;;5.00;77.30;;;;;;5016231;28;20178;-90
2022/03/31 03:30:53;;;;;;;4.60;2.90;;;4.90;78.80;;;;;;5032716;28;20178;-92
2022/03/31 03:33:19;;;;;;;3.80;3.15;;;4.80;80.20;;;;;;5033586;28;20205;-92
2022/03/31 03:35:48;;;;;;;2.65;2.45;;;4.30;82.70;;;;;;5016299;28;20623;-92
2022/03/31 03:38:17;;;;;;;1.95;1.85;;;4.20;84.50;;;;;;5018755;28;20185;-89
2022/03/31 03:40:43;;;;;;;3.35;2.88;;;3.90;86.10;;;;;;5028777;28;20683;-91
2022/03/31 03:43:10;;;;;;;3.03;2.58;;;3.70;86.90;;;;;;5045073;28;20202;-92
2022/03/31 03:45:36;;;;;;;2.97;2.40;;;3.60;87.60;;;;;;5015145;28;20254;-91
2022/03/31 03:48:03;;;;;;;3.10;2.10;;;3.60;88.20;;;;;;5016596;28;20300;-90
2022/03/31 03:50:29;;;;;;;5.50;2.40;;;3.70;89.00;;;;;;5008958;28;20236;-89
2022/03/31 03:52:55;;;;;;;4.33;2.50;;;3.70;89.60;;;;;;5032578;28;20198;-89
2022/03/31 03:55:21;;;;;;;4.30;2.80;;;3.70;89.70;;;;;;5020738;28;20424;-89
2022/03/31 03:57:47;;;;;;;3.67;2.40;;;3.50;89.90;;;;;;5015055;28;20551;-90
2022/03/31 04:00:13;;;;;;;2.57;1.73;;;3.50;90.30;;;;;;4997001;28;20206;-90
2022/03/31 04:02:39;;;;;;;3.28;2.38;;;3.40;90.40;;;;;;5015036;28;20508;-90
2022/03/31 04:05:05;;;;;;;2.15;1.95;;;3.50;90.60;;;;;;5016998;28;20184;-90
2022/03/31 04:07:31;;;;;;;3.45;2.33;;;3.50;90.50;;;;;;5020301;28;20186;-90
2022/03/31 04:09:57;;;;;;;2.80;1.90;;;3.40;90.30;;;;;;5019818;28;20196;-90
2022/03/31 04:12:23;;;;;;;1.73;1.63;;;3.30;90.30;;;;;;5019632;28;20448;-91
2022/03/31 04:14:49;;;;;;;4.30;2.20;;;3.40;90.40;;;;;;5019199;28;20420;-90
2022/03/31 04:17:16;;;;;;;2.30;2.10;;;3.30;90.40;;;;;;5014532;28;20213;-91
2022/03/31 04:19:43;;;;;;;3.70;2.20;;;3.30;90.40;;;;;;5033260;28;20509;-90
2022/03/31 04:22:09;;;;;;;1.80;1.70;;;3.40;90.40;;;;;;5015191;28;20751;-91
2022/03/31 04:24:35;;;;;;;2.60;2.40;;;3.40;90.40;;;;;;5032419;28;20174;-91
2022/03/31 04:27:01;;;;;;;5.57;2.25;;;3.20;90.30;;;;;;5014652;28;20209;-91
2022/03/31 04:29:27;;;;;;;3.10;2.55;;;3.40;90.40;;;;;;5014765;28;20189;-90
2022/03/31 04:31:53;;;;;;;3.27;2.97;;;3.10;90.20;;;;;;5015097;28;20198;-90
2022/03/31 04:34:20;;;;;;;3.58;2.42;;;3.20;90.40;;;;;;5015256;28;20421;-91
2022/03/31 04:36:48;;;;;;;2.30;2.10;;;3.30;90.60;;;;;;5014940;28;20276;-91
2022/03/31 04:39:15;;;;;;;3.63;2.30;;;3.20;90.50;;;;;;5015597;28;20228;-91
2022/03/31 04:41:41;;;;;;;3.60;2.80;;;3.30;90.70;;;;;;5010617;28;20308;-91
2022/03/31 04:44:07;;;;;;;3.92;2.70;;;3.40;90.40;;;;;;5014328;28;20564;-91
2022/03/31 04:46:33;;;;;;;3.97;2.97;;;3.40;90.40;;;;;;5014502;28;20661;-90
2022/03/31 04:49:00;;;;;;;5.22;3.10;;;3.40;90.40;;;;;;5014355;28;20182;-91
2022/03/31 04:51:26;;;;;;;3.60;3.13;;;3.50;90.40;;;;;;5015253;28;20213;-91
2022/03/31 04:53:52;;;;;;;2.95;2.35;;;3.60;90.40;;;;;;5040553;28;20277;-93
2022/03/31 04:56:18;;;;;;;5.03;3.60;;;3.70;90.20;;;;;;5015646;28;20206;-90
2022/03/31 04:58:44;;;;;;;9.37;3.80;;;3.60;89.80;;;;;;5018443;28;20721;-90
2022/03/31 05:01:18;;;;;;;6.13;3.92;;;3.50;89.60;;;;;;5035905;28;20425;-90
2022/03/31 05:03:44;;;;;;;6.38;4.70;;;3.40;89.60;;;;;;5020316;28;20559;-90
2022/03/31 05:06:09;;;;;;;4.47;4.00;;;3.50;90.00;;;;;;5030669;28;20174;-89
2022/03/31 05:08:36;;;;;;;5.67;4.20;;;3.40;89.60;;;;;;5017389;28;20289;-89
2022/03/31 05:11:02;;;;;;;8.23;4.60;;;3.60;90.00;;;;;;5035599;28;20190;-91
2022/03/31 05:13:31;;;;;;;6.32;3.95;;;3.50;89.80;;;;;;5019379;28;20284;-90
2022/03/31 05:15:56;;;;;;;7.03;4.78;;;3.50;90.00;;;;;;5019187;28;20205;-90
2022/03/31 05:18:22;;;;;;;9.40;4.37;;;3.40;89.50;;;;;;5035960;28;20541;-91
2022/03/31 05:20:48;;;;;;;3.90;3.37;;;3.50;89.40;;;;;;5018929;28;20417;-90
2022/03/31 05:23:27;;;;;;;6.65;3.50;;;3.60;89.40;;;;;;5021566;28;20225;-91
2022/03/31 05:25:53;;;;;;;4.45;3.75;;;3.50;89.20;;;;;;5021090;28;20181;-91
2022/03/31 05:28:18;;;;;;;5.23;4.30;;;3.50;89.30;;;;;;5020155;28;20180;-90
2022/03/31 05:30:44;;;;;;;7.00;4.97;;;3.60;89.20;;;;;;5055169;28;20393;-91
2022/03/31 05:33:11;;;;;;;5.07;3.47;;;3.50;89.10;;;;;;5058394;28;20225;-90
2022/03/31 05:35:37;;;;;;;3.63;3.30;;;3.50;89.00;;;;;;5041260;28;20196;-90
2022/03/31 05:38:03;;;;;;;6.60;4.50;;;3.50;89.10;;;;;;5031007;28;20225;-90
2022/03/31 05:40:29;;;;;;;6.27;4.20;;;3.60;89.10;;;;;;5003998;28;20192;-90
2022/03/31 05:42:55;;;;;;;4.90;3.75;;;3.70;89.10;;;;;;5039546;28;20456;-90
2022/03/31 05:45:29;;;;;;;9.23;4.32;;;3.60;88.80;;;;;;5019438;28;20185;-90
2022/03/31 05:47:55;;;;;;;5.60;3.97;;;3.60;88.50;;;;;;5026247;28;20170;-92
2022/03/31 05:50:21;;;;;;;6.10;4.60;;;3.50;88.40;;;;;;5052370;28;20188;-90
2022/03/31 05:52:47;;;;;;;6.17;5.03;;;3.40;88.50;;;;;;5025210;28;20734;-90
2022/03/31 05:55:15;;;;;;;7.20;4.50;;;3.50;88.90;;;;;;5023799;28;20433;-89
2022/03/31 05:57:41;;;;;;;6.47;5.18;;;3.50;88.80;;;;;;5026333;28;20221;-92
2022/03/31 06:00:16;;;;;;;6.07;4.18;;;3.70;88.70;;;;;;5037890;28;20181;-91
2022/03/31 06:02:52;;;;;;;5.70;4.05;;;3.80;88.60;;;;;;5037519;28;20193;-91
2022/03/31 06:05:19;;;;;;;8.25;4.90;;;3.80;88.40;;;;;;5018302;28;20188;-91
2022/03/31 06:07:47;;;;;;;9.23;5.05;;;4.00;88.40;;;;;;5020076;28;20547;-91
2022/03/31 06:10:13;;;;;;;8.43;4.50;;;4.10;88.10;;;;;;5018703;28;20797;-91
2022/03/31 06:12:39;;;;;;;8.03;5.10;;;3.90;87.70;;;;;;5018654;28;20206;-90
2022/03/31 06:15:06;;;;;;;5.33;3.83;;;4.00;87.60;;;;;;5020720;28;20475;-91
2022/03/31 06:17:49;;;;;;;8.32;4.43;;;4.10;87.60;;;;;;5036438;28;20494;-88
2022/03/31 06:20:15;;;;;;;6.72;5.03;;;3.90;87.00;;;;;;5017163;28;20188;-90
2022/03/31 06:22:41;;;;;;;6.32;4.93;;;4.00;87.00;;;;;;5017624;28;20210;-89
2022/03/31 06:25:10;;;;;;;6.10;4.57;;;4.00;87.00;;;;;;5017127;28;20231;-89
2022/03/31 06:27:37;;;;;;;9.07;4.75;;;3.80;86.70;;;;;;5035227;28;20471;-89
2022/03/31 06:30:03;;;;;;;8.48;5.00;;;3.90;87.10;;;;;;5017126;28;20612;-89
2022/03/31 06:32:29;;;;;;;9.77;5.60;;;3.90;87.00;;;;;;5016643;28;20208;-89
2022/03/31 06:34:54;;;;;;;6.70;4.53;;;4.00;86.80;;;;;;5017009;28;20276;-91
2022/03/31 06:37:20;;;;;;;8.73;5.47;;;4.00;86.50;;;;;;5022033;28;20556;-89
2022/03/31 06:39:46;;;;;;;6.72;4.90;;;3.90;86.50;;;;;;5020736;28;20413;-89
2022/03/31 06:42:12;;;;;;;8.00;4.90;;;3.90;86.50;;;;;;5038313;28;20198;-89
2022/03/31 06:44:41;;;;;;;5.70;4.47;;;3.80;86.00;;;;;;5001157;28;20452;-88
2022/03/31 06:47:10;;;;;;;7.78;4.80;;;3.90;86.00;;;;;;5002095;28;20277;-90
2022/03/31 06:49:38;;;;;;;10.15;5.60;;;3.90;86.00;;;;;;5034672;28;20178;-91
2022/03/31 06:52:04;;;;;;;7.75;5.40;;;4.00;85.90;;;;;;5029708;28;20561;-89
2022/03/31 06:54:31;;;;;;;10.70;5.03;;;4.20;85.90;;;;;;5020144;28;20574;-89
2022/03/31 06:56:57;;;;;;;7.53;5.40;;;4.20;86.20;;;;;;5036009;28;20204;-90
2022/03/31 06:59:23;;;;;;;6.40;3.87;;;4.30;84.90;;;;;;5036445;28;20239;-90
2022/03/31 07:01:49;;;;;;;7.50;5.25;;;4.40;84.30;;;;;;5054947;28;20982;-90
2022/03/31 07:04:15;;;;;;;7.17;4.50;;;4.30;83.80;;;;;;5036649;28;20177;-90
2022/03/31 07:06:41;;;;;;;5.72;4.53;;;4.30;83.30;;;;;;5039411;28;20415;-89
2022/03/31 07:09:07;;;;;;;7.68;4.57;;;4.50;83.30;;;;;;5040141;28;20842;-90
2022/03/31 07:11:34;;;;;;;9.03;5.13;;;4.40;83.30;;;;;;5057108;28;20208;-90
2022/03/31 07:14:05;;;;;;;8.38;5.55;;;4.60;82.90;;;;;;5049070;28;20800;-90
2022/03/31 07:16:31;;;;;;;7.38;4.70;;;4.90;82.60;;;;;;5047807;28;20209;-90
2022/03/31 07:18:58;;;;;;;7.43;4.82;;;4.80;82.00;;;;;;5065628;28;20173;-89
2022/03/31 07:21:25;;;;;;;6.20;5.03;;;4.80;82.20;;;;;;5042926;28;20217;-90
2022/03/31 07:23:54;;;;;;;6.55;4.47;;;4.80;81.50;;;;;;5037202;28;20177;-90
2022/03/31 07:26:22;;;;;;;4.65;2.97;;;4.60;81.70;;;;;;5036561;28;20203;-89
2022/03/31 07:28:48;;;;;;;4.97;3.70;;;4.90;81.80;;;;;;5040951;28;20207;-90
2022/03/31 07:31:14;;;;;;;4.57;3.35;;;4.60;81.50;;;;;;5043017;28;20208;-90
2022/03/31 07:33:44;;;;;;;5.20;3.65;;;4.70;81.70;;;;;;5061047;28;20177;-91
2022/03/31 07:36:10;;;;;;;5.13;4.30;;;4.50;81.70;;;;;;5045428;28;20185;-91
2022/03/31 07:38:35;;;;;;;6.30;4.15;;;4.40;82.40;;;;;;5475899;22;20267;-92
2022/03/31 07:41:02;;;;;;;3.20;2.87;;;4.40;82.50;;;;;;5047504;28;20181;-92
2022/03/31 07:43:27;;;;;;;4.78;2.58;;;4.70;82.20;;;;;;5054824;28;20189;-91
2022/03/31 07:45:54;;;;;;;9.73;2.97;;;4.60;81.60;;;;;;5043812;28;20204;-91
2022/03/31 07:48:20;;;;;;;5.78;3.13;;;4.60;81.70;;;;;;5035555;28;20176;-92
2022/03/31 07:50:46;;;;;;;7.33;3.57;;;4.60;81.40;;;;;;5035934;28;20652;-91
2022/03/31 07:53:12;;;;;;;6.07;2.63;;;4.60;81.00;;;;;;5036247;28;20443;-91
2022/03/31 07:55:39;;;;;;;6.75;3.00;;;4.60;81.40;;;;;;5036879;28;20185;-90
2022/03/31 07:58:05;;;;;;;5.03;3.53;;;4.80;81.30;;;;;;5036427;28;20613;-91
2022/03/31 08:00:31;;;;;;;5.45;3.33;;;5.00;80.70;;;;;;5037037;28;20181;-91
2022/03/31 08:02:59;;;;;;;5.50;2.20;;;4.90;80.20;;;;;;5042960;28;20231;-91
2022/03/31 08:05:27;;;;;;;2.53;2.33;;;4.80;79.80;;;;;;5059641;28;20181;-92
2022/03/31 08:07:54;;;;;;;5.15;3.78;;;4.80;79.80;;;;;;5035177;28;20196;-92
2022/03/31 08:10:20;;;;;;;6.07;3.15;;;5.00;79.90;;;;;;5037222;28;20181;-92
2022/03/31 08:12:46;;;;;;;5.68;2.47;;;5.20;79.80;;;;;;5019602;28;20205;-91
2022/03/31 08:15:15;;;;;;;7.45;3.20;;;5.30;79.40;;;;;;5034394;28;20276;-92
2022/03/31 08:17:41;;;;;;;4.95;3.13;;;5.20;78.90;;;;;;5036600;28;20228;-91
2022/03/31 08:20:12;;;;;;;5.60;4.07;;;5.10;79.00;;;;;;5039675;28;20574;-92
2022/03/31 08:22:39;;;;;;;3.10;2.90;;;5.10;79.20;;;;;;5040334;28;20660;-91
2022/03/31 08:25:09;;;;;;;4.60;3.60;;;5.00;79.30;;;;;;5057602;28;20176;-91
2022/03/31 08:27:35;;;;;;;4.70;3.60;;;5.10;79.60;;;;;;5034530;28;20185;-91
2022/03/31 08:30:04;;;;;;;3.97;3.53;;;5.30;79.70;;;;;;5047171;28;20189;-92
2022/03/31 08:32:34;;;;;;;5.10;3.17;;;5.20;79.10;;;;;;5035974;28;20258;-92
2022/03/31 08:35:02;;;;;;;4.07;3.45;;;5.40;78.60;;;;;;5057088;28;20169;-92
2022/03/31 08:37:27;;;;;;;4.15;3.55;;;5.40;77.70;;;;;;5039489;28;20197;-92
2022/03/31 08:39:55;;;;;;;3.27;2.97;;;5.30;77.90;;;;;;5047510;28;20180;-91
2022/03/31 08:42:20;;;;;;;4.75;2.92;;;5.20;78.20;;;;;;5058794;28;20442;-92
2022/03/31 08:44:50;;;;;;;5.03;4.00;;;5.20;78.50;;;;;;5076873;28;20525;-92
2022/03/31 08:47:17;;;;;;;3.38;3.03;;;5.40;79.00;;;;;;5059169;28;20945;-91
2022/03/31 08:49:48;;;;;;;3.42;3.13;;;5.30;78.40;;;;;;5063251;28;20188;-90
2022/03/31 08:52:14;;;;;;;4.50;3.38;;;5.30;78.30;;;;;;5090692;28;20568;-91
2022/03/31 08:54:41;;;;;;;4.23;3.33;;;5.20;78.80;;;;;;5058331;28;20176;-91
2022/03/31 08:57:07;;;;;;;5.35;4.25;;;5.20;78.70;;;;;;5040569;28;20462;-91
2022/03/31 08:59:32;;;;;;;4.33;3.30;;;5.40;78.50;;;;;;5056951;28;20176;-90
2022/03/31 09:01:59;;;;;;;3.67;3.37;;;5.50;78.30;;;;;;5057181;28;20196;-91
2022/03/31 09:04:25;;;;;;;5.95;4.03;;;5.70;78.20;;;;;;5042627;28;20535;-91
2022/03/31 09:07:02;;;;;;;9.55;3.50;;;5.60;77.10;;;;;;5038784;28;20617;-91
2022/03/31 09:09:28;;;;;;;7.90;4.50;;;5.70;76.70;;;;;;5038835;28;20209;-91
2022/03/31 09:11:58;;;;;;;9.25;3.35;;;5.90;75.70;;;;;;5040782;28;20236;-91
2022/03/31 09:14:32;;;;;;;3.83;2.92;;;6.00;75.10;;;;;;5038547;28;20177;-91
2022/03/31 09:17:12;;;;;;;4.90;3.17;;;5.90;74.50;;;;;;5038289;28;20668;-91
2022/03/31 09:19:38;;;;;;;4.07;3.67;;;5.80;75.00;;;;;;5040196;28;20174;-91
2022/03/31 09:22:05;;;;;;;3.35;2.67;;;5.90;75.30;;;;;;5044168;28;20193;-90
2022/03/31 09:24:31;;;;;;;4.10;3.70;;;6.10;74.90;;;;;;5045541;28;20201;-91
2022/03/31 09:26:59;;;;;;;4.13;3.70;;;5.90;74.80;;;;;;5040820;28;20231;-90
2022/03/31 09:29:29;;;;;;;10.65;3.35;;;5.90;74.90;;;;;;5038032;28;20208;-91
2022/03/31 09:32:13;;;;;;;4.65;3.35;;;6.00;75.00;;;;;;5037308;28;20197;-91
2022/03/31 09:34:48;;;;;;;6.68;4.38;;;6.20;74.20;;;;;;5037103;28;20252;-91
2022/03/31 09:37:15;;;;;;;4.82;3.90;;;6.30;73.90;;;;;;5048844;28;20287;-90
2022/03/31 09:39:41;;;;;;;3.50;3.10;;;6.40;73.50;;;;;;4992501;28;1292789;-91
2022/03/31 09:42:16;;;;;;;4.28;2.97;;;6.40;72.80;;;;;;5058742;28;20208;-91
2022/03/31 09:44:42;;;;;;;3.80;2.85;;;6.40;72.60;;;;;;5062047;28;20663;-91
2022/03/31 09:47:10;;;;;;;4.40;3.08;;;6.20;72.80;;;;;;5066720;28;20172;-90
2022/03/31 09:49:36;;;;;;;9.38;3.30;;;6.10;73.20;;;;;;5068156;28;20272;-90
2022/03/31 09:52:07;;;;;;;2.88;2.63;;;6.40;73.00;;;;;;5066236;28;20197;-90
2022/03/31 09:54:34;;;;;;;5.43;3.67;;;6.30;72.70;;;;;;5065483;28;20177;-90
2022/03/31 09:57:02;;;;;;;3.75;3.10;;;6.50;71.90;;;;;;5059678;28;20291;-90
2022/03/31 09:59:34;;;;;;;3.97;2.28;;;6.70;71.10;;;;;;5058771;28;20177;-89
2022/03/31 10:02:02;;;;;;;2.80;2.60;;;6.50;70.80;;;;;;5059387;28;20665;-90
2022/03/31 10:04:28;;;;;;;5.30;3.15;;;6.70;71.40;;;;;;5058332;28;20188;-90
2022/03/31 10:06:55;;;;;;;4.03;3.00;;;7.20;70.70;;;;;;5078180;28;20169;-90
2022/03/31 10:09:22;;;;;;;8.27;3.35;;;7.10;69.90;;;;;;5061755;28;20180;-90
2022/03/31 10:11:57;;;;;;;4.78;3.05;;;7.40;69.70;;;;;;5064399;28;20596;-90
2022/03/31 10:14:36;;;;;;;3.30;3.00;;;7.60;68.70;;;;;;5061564;28;20180;-90
2022/03/31 10:17:10;;;;;;;6.22;2.85;;;7.80;67.90;;;;;;5061798;28;20303;-90
2022/03/31 10:19:44;;;;;;;4.05;3.15;;;8.10;66.70;;;;;;5045485;28;20184;-90
2022/03/31 10:25:15;;;;;;;5.20;3.72;;;7.90;64.70;;;;;;5080671;28;20351;-90
2022/03/31 10:27:49;;;;;;;4.65;3.08;;;7.60;66.00;;;;;;5080202;28;20229;-89
2022/03/31 10:30:15;;;;;;;6.90;3.53;;;7.60;65.90;;;;;;5065868;28;20189;-89
2022/03/31 10:32:58;;;;;;;5.40;3.70;;;7.30;66.60;;;;;;5072213;28;20204;-90
2022/03/31 10:35:27;;;;;;;4.95;3.42;;;7.50;67.10;;;;;;5057546;28;20180;-89
2022/03/31 10:37:53;;;;;;;4.35;3.63;;;7.40;67.40;;;;;;5056827;28;20208;-89
2022/03/31 10:40:33;;;;;;;4.55;2.92;;;7.40;67.30;;;;;;5042237;28;20203;-89
2022/03/31 10:42:59;;;;;;;12.13;4.10;;;7.10;67.60;;;;;;5037715;28;20292;-89
2022/03/31 10:45:40;;;;;;;4.03;3.63;;;6.90;68.20;;;;;;5037008;28;20276;-89
2022/03/31 10:48:32;;;;;;;4.97;3.88;;;6.80;68.10;;;;;;5040329;28;20180;-90
2022/03/31 10:51:05;;;;;;;5.60;4.05;;;7.10;68.20;;;;;;5036401;28;20197;-91
2022/03/31 10:53:39;;;;;;;10.52;3.67;;;7.10;68.30;;;;;;5038245;28;20188;-90
2022/03/31 10:56:20;;;;;;;3.97;3.58;;;7.10;67.30;;;;;;5040049;28;20219;-90
2022/03/31 10:58:46;;;;;;;3.42;3.13;;;7.20;67.50;;;;;;5038033;28;20180;-90
2022/03/31 11:01:12;;;;;;;5.53;3.70;;;7.30;66.80;;;;;;5022050;28;20216;-90
2022/03/31 11:03:40;;;;;;;4.80;3.63;;;7.70;65.70;;;;;;5037876;28;20279;-90
2022/03/31 11:06:10;;;;;;;3.90;3.50;;;7.70;64.30;;;;;;5074182;28;20268;-90
2022/03/31 11:08:47;;;;;;;8.10;3.63;;;7.60;64.10;;;;;;5040109;28;20169;-90
2022/03/31 11:11:24;;;;;;;3.97;3.58;;;7.40;64.90;;;;;;5074341;28;20168;-90
2022/03/31 11:13:51;;;;;;;4.10;3.53;;;7.20;65.20;;;;;;5055862;28;20267;-90
2022/03/31 11:16:18;;;;;;;11.68;5.00;;;7.40;65.60;;;;;;5056411;28;20177;-90
2022/03/31 11:18:57;;;;;;;5.22;3.70;;;7.50;65.10;;;;;;5074123;28;20189;-90
2022/03/31 11:21:36;;;;;;;7.05;3.30;;;7.50;65.30;;;;;;5057076;28;20204;-90
2022/03/31 11:24:02;;;;;;;3.65;3.08;;;7.70;65.00;;;;;;5073890;28;20160;-90
2022/03/31 11:26:31;;;;;;;3.90;3.03;;;7.50;64.60;;;;;;5040304;28;20193;-90
2022/03/31 11:28:57;;;;;;;3.58;2.40;;;7.70;64.40;;;;;;5063386;28;20208;-90
2022/03/31 11:31:23;;;;;;;3.80;2.97;;;7.90;64.10;;;;;;5069648;28;20208;-90
2022/03/31 11:33:49;;;;;;;4.72;3.60;;;8.20;63.90;;;;;;5059871;28;20184;-90
2022/03/31 11:36:18;;;;;;;3.75;2.92;;;8.50;62.90;;;;;;5055852;28;20176;-89
2022/03/31 11:39:07;;;;;;;4.57;3.03;;;8.40;61.20;;;;;;5054596;28;20203;-89
2022/03/31 11:41:39;;;;;;;4.85;3.70;;;8.90;59.90;;;;;;5054637;28;20189;-89
2022/03/31 11:44:07;;;;;;;3.90;3.50;;;8.80;59.40;;;;;;5057075;28;20189;-90
2022/03/31 11:46:43;;;;;;;6.00;4.10;;;8.70;60.60;;;;;;5039358;28;20240;-90
2022/03/31 11:49:26;;;;;;;8.43;4.22;;;8.50;59.40;;;;;;5035669;28;20188;-89
2022/03/31 11:52:00;;;;;;;5.07;3.97;;;8.70;59.50;;;;;;5034634;28;20725;-90
2022/03/31 11:54:28;;;;;;;2.95;2.75;;;8.80;58.50;;;;;;5034931;28;20259;-89
2022/03/31 11:57:08;;;;;;;3.67;3.28;;;8.70;58.00;;;;;;5034567;28;20202;-89
2022/03/31 11:59:35;;;;;;;3.28;2.95;;;8.60;58.30;;;;;;5034864;28;20636;-89
2022/03/31 12:02:01;;;;;;;6.72;4.00;;;8.40;58.90;;;;;;5052275;28;20201;-89
2022/03/31 12:04:30;;;;;;;3.47;3.17;;;8.50;59.60;;;;;;5052100;28;20177;-89
2022/03/31 12:06:58;;;;;;;6.55;3.13;;;8.70;59.00;;;;;;5035338;28;20185;-89
2022/03/31 12:09:27;;;;;;;4.60;3.38;;;9.00;57.80;;;;;;5057831;28;20212;-89
2022/03/31 12:11:54;;;;;;;3.25;2.92;;;9.10;57.60;;;;;;5057466;28;20255;-89
2022/03/31 12:14:20;;;;;;;3.45;2.70;;;8.90;57.20;;;;;;5038801;28;20184;-89
2022/03/31 12:16:49;;;;;;;3.20;3.00;;;9.00;57.20;;;;;;5037869;28;20295;-89
2022/03/31 12:19:15;;;;;;;3.17;2.88;;;9.00;57.10;;;;;;5056334;28;20411;-90
2022/03/31 12:21:46;;;;;;;5.60;3.78;;;8.90;56.70;;;;;;5038089;28;20201;-90
2022/03/31 12:24:13;;;;;;;3.45;3.05;;;8.70;57.20;;;;;;5038138;28;20177;-90
2022/03/31 12:26:55;;;;;;;4.70;4.10;;;8.50;57.50;;;;;;5056506;28;20670;-91
2022/03/31 12:29:22;;;;;;;6.05;5.20;;;8.30;58.40;;;;;;5038186;28;20187;-92
2022/03/31 12:32:16;;;;;;;4.38;3.70;;;8.70;58.90;;;;;;5042966;28;20669;-92
2022/03/31 12:34:58;;;;;;;5.30;4.28;;;9.20;58.60;;;;;;5041146;28;20637;-92
2022/03/31 12:37:35;;;;;;;4.90;4.20;;;9.10;56.80;;;;;;5040344;28;20213;-93
2022/03/31 12:40:08;;;;;;;4.60;4.20;;;9.10;56.70;;;;;;5040639;28;20200;-93
2022/03/31 12:42:35;;;;;;;4.40;4.00;;;9.10;55.70;;;;;;5059567;28;20280;-93
2022/03/31 12:45:13;;;;;;;5.95;4.90;;;9.20;55.40;;;;;;5061927;28;20227;-92
2022/03/31 12:47:44;;;;;;;6.88;5.75;;;9.10;55.70;;;;;;5040866;28;20201;-92
2022/03/31 12:50:17;;;;;;;9.43;6.78;;;9.00;56.30;;;;;;5040813;28;20343;-92
2022/03/31 12:52:59;;;;;;;8.48;7.63;;;9.20;56.70;;;;;;5037947;28;20208;-91
2022/03/31 12:55:38;;;;;;;8.52;7.53;;;9.20;56.90;;;;;;5037963;28;20648;-92
2022/03/31 12:58:10;;;;;;;10.60;7.47;;;9.30;56.90;;;;;;5038402;28;20213;-92
2022/03/31 13:00:36;;;;;;;9.20;7.60;;;9.40;56.10;;;;;;5038586;28;20165;-92
2022/03/31 13:03:03;;;;;;;9.02;7.65;;;9.20;56.60;;;;;;5039133;28;20197;-91
2022/03/31 13:05:30;;;;;;;8.00;7.20;;;9.00;56.40;;;;;;5038328;28;20294;-91
2022/03/31 13:07:56;;;;;;;7.20;6.53;;;9.00;56.50;;;;;;5038588;28;20254;-92